createdAt,value
2023-07-06T00:02:26.224Z,3.38
2023-07-06T00:04:53.439Z,3.53
2023-07-06T00:07:22.563Z,4.68
2023-07-06T00:09:50.686Z,3.45
2023-07-06T00:12:20.213Z,7.63
2023-07-06T00:14:46.783Z,6.22
2023-07-06T00:17:15.538Z,3.33
2023-07-06T00:19:43.116Z,3.58
2023-07-06T00:22:12.116Z,8.52
2023-07-06T00:24:39.936Z,4.40
2023-07-06T00:27:06.730Z,4.05
2023-07-06T00:29:36.936Z,6.60
2023-07-06T00:32:28.067Z,3.20
2023-07-06T00:35:00.131Z,6.30
2023-07-06T00:37:27.787Z,6.23
2023-07-06T00:39:55.488Z,7.57
2023-07-06T00:42:24.000Z,6.88
2023-07-06T00:44:59.029Z,5.80
2023-07-06T00:47:38.262Z,7.25
2023-07-06T00:50:09.934Z,5.77
2023-07-06T00:52:41.062Z,5.95
2023-07-06T00:55:09.747Z,6.47
2023-07-06T00:57:39.953Z,8.85
2023-07-06T01:00:08.830Z,6.28
2023-07-06T01:02:40.166Z,4.40
2023-07-06T01:05:09.570Z,5.22
2023-07-06T01:07:39.123Z,7.13
2023-07-06T01:10:06.813Z,5.68
2023-07-06T01:12:34.321Z,8.52
2023-07-06T01:15:01.517Z,7.20
2023-07-06T01:17:40.471Z,5.22
2023-07-06T01:20:23.465Z,5.43
2023-07-06T01:23:08.544Z,5.40
2023-07-06T01:25:47.187Z,8.18
2023-07-06T01:28:38.997Z,3.77
2023-07-06T01:31:29.668Z,7.32
2023-07-06T01:34:25.810Z,5.55
2023-07-06T01:37:04.237Z,8.05
2023-07-06T01:39:30.743Z,4.57
2023-07-06T01:42:15.888Z,13.80
2023-07-06T01:44:48.297Z,9.77
2023-07-06T01:47:17.338Z,6.28
2023-07-06T01:49:44.522Z,10.52
2023-07-06T01:52:37.760Z,4.45
2023-07-06T01:55:22.219Z,7.73
2023-07-06T01:58:02.342Z,10.38
2023-07-06T02:00:32.015Z,7.15
2023-07-06T02:03:01.008Z,13.90
2023-07-06T02:05:29.007Z,7.13
2023-07-06T02:07:56.351Z,10.00
2023-07-06T02:10:23.605Z,5.72
2023-07-06T02:12:50.660Z,5.25
2023-07-06T02:15:20.906Z,6.07
2023-07-06T02:17:48.823Z,5.57
2023-07-06T02:20:17.711Z,4.20
2023-07-06T02:22:45.486Z,8.63
2023-07-06T02:25:13.008Z,8.30
2023-07-06T02:27:39.819Z,5.10
2023-07-06T02:30:07.146Z,10.52
2023-07-06T02:32:35.211Z,6.27
2023-07-06T02:35:03.831Z,6.38
2023-07-06T02:37:31.515Z,7.00
2023-07-06T02:40:00.037Z,4.40
2023-07-06T02:42:27.363Z,4.50
2023-07-06T02:44:55.143Z,6.07
2023-07-06T02:47:23.320Z,7.75
2023-07-06T02:49:49.996Z,5.63
2023-07-06T02:52:16.848Z,7.78
2023-07-06T02:54:43.737Z,8.73
2023-07-06T02:57:10.265Z,7.27
2023-07-06T02:59:36.877Z,8.25
2023-07-06T03:02:04.829Z,8.07
2023-07-06T03:04:33.162Z,8.55
2023-07-06T03:07:00.167Z,8.05
2023-07-06T03:09:30.784Z,7.13
2023-07-06T03:11:57.746Z,10.00
2023-07-06T03:14:25.925Z,7.82
2023-07-06T03:16:55.924Z,6.70
2023-07-06T03:19:22.805Z,7.70
2023-07-06T03:21:49.574Z,5.13
2023-07-06T03:24:16.504Z,4.72
2023-07-06T03:26:44.965Z,5.93
2023-07-06T03:29:14.863Z,10.30
2023-07-06T03:31:42.331Z,10.15
2023-07-06T03:34:08.990Z,7.47
2023-07-06T03:36:36.590Z,8.63
2023-07-06T03:39:03.647Z,7.18
2023-07-06T03:41:30.321Z,8.15
2023-07-06T03:44:00.534Z,6.07
2023-07-06T03:46:35.869Z,7.27
2023-07-06T03:49:04.741Z,9.35
2023-07-06T03:51:32.914Z,8.02
2023-07-06T03:54:00.370Z,7.82
2023-07-06T03:56:29.760Z,7.65
2023-07-06T03:58:57.896Z,5.87
2023-07-06T04:01:28.780Z,12.82
2023-07-06T04:03:57.725Z,6.03
2023-07-06T04:06:30.012Z,7.15
2023-07-06T04:09:00.750Z,6.55
2023-07-06T04:11:27.530Z,9.17
2023-07-06T04:14:00.370Z,6.25
2023-07-06T04:16:28.451Z,12.20
2023-07-06T04:18:55.221Z,10.45
2023-07-06T04:21:23.440Z,4.75
2023-07-06T04:23:50.548Z,6.63
2023-07-06T04:26:19.235Z,8.63
2023-07-06T04:28:46.303Z,6.95
2023-07-06T04:31:16.028Z,3.95
2023-07-06T04:33:44.857Z,5.95
2023-07-06T04:36:11.591Z,6.73
2023-07-06T04:38:38.669Z,4.63
2023-07-06T04:41:06.211Z,5.50
2023-07-06T04:43:32.896Z,6.95
2023-07-06T04:45:59.741Z,6.53
2023-07-06T04:48:27.689Z,9.53
2023-07-06T04:50:55.597Z,9.32
2023-07-06T04:53:23.335Z,10.65
2023-07-06T04:55:52.082Z,6.65
2023-07-06T04:58:19.688Z,8.07
2023-07-06T05:00:47.269Z,11.20
2023-07-06T05:03:14.671Z,6.78
2023-07-06T05:05:47.099Z,10.07
2023-07-06T05:08:17.066Z,10.88
2023-07-06T05:10:52.029Z,11.25
2023-07-06T05:13:21.723Z,9.93
2023-07-06T05:15:50.088Z,12.77
2023-07-06T05:18:21.694Z,7.30
2023-07-06T05:20:51.280Z,6.25
2023-07-06T05:23:19.646Z,9.38
2023-07-06T05:25:46.443Z,6.53
2023-07-06T05:28:12.988Z,5.13
2023-07-06T05:30:40.794Z,6.75
2023-07-06T05:33:07.632Z,10.98
2023-07-06T05:35:34.191Z,11.90
2023-07-06T05:38:01.464Z,18.13
2023-07-06T05:40:28.565Z,15.48
2023-07-06T05:42:56.122Z,7.72
2023-07-06T05:45:22.784Z,8.85
2023-07-06T05:47:49.549Z,8.90
2023-07-06T05:50:16.144Z,16.97
2023-07-06T05:52:42.869Z,11.75
2023-07-06T05:55:10.490Z,14.25
2023-07-06T05:57:37.301Z,10.30
2023-07-06T06:00:11.057Z,10.55
2023-07-06T06:02:39.152Z,5.97
2023-07-06T06:05:06.896Z,9.68
2023-07-06T06:07:34.636Z,8.95
2023-07-06T06:10:04.307Z,9.57
2023-07-06T06:12:32.864Z,10.05
2023-07-06T06:14:59.990Z,8.40
2023-07-06T06:17:29.554Z,9.77
2023-07-06T06:19:56.340Z,11.45
2023-07-06T06:22:23.726Z,12.45
2023-07-06T06:24:50.443Z,12.02
2023-07-06T06:27:18.873Z,7.80
2023-07-06T06:29:45.497Z,13.38
2023-07-06T06:32:13.173Z,11.93
2023-07-06T06:34:41.194Z,12.25
2023-07-06T06:37:09.362Z,12.35
2023-07-06T06:39:36.304Z,13.63
2023-07-06T06:42:04.060Z,17.92
2023-07-06T06:44:31.958Z,12.75
2023-07-06T06:47:03.448Z,10.60
2023-07-06T06:49:34.435Z,16.08
2023-07-06T06:52:05.521Z,12.33
2023-07-06T06:54:33.187Z,12.55
2023-07-06T06:56:59.986Z,11.40
2023-07-06T06:59:26.963Z,9.75
2023-07-06T07:01:55.813Z,12.20
2023-07-06T07:04:23.472Z,10.27
2023-07-06T07:06:50.110Z,12.75
2023-07-06T07:09:19.247Z,10.82
2023-07-06T07:11:46.315Z,13.85
2023-07-06T07:14:15.410Z,8.45
2023-07-06T07:16:42.261Z,7.67
2023-07-06T07:19:09.848Z,15.43
2023-07-06T07:21:37.287Z,10.52
2023-07-06T07:24:04.319Z,11.73
2023-07-06T07:26:31.125Z,12.95
2023-07-06T07:28:58.295Z,7.97
2023-07-06T07:31:26.788Z,16.45
2023-07-06T07:33:54.147Z,8.10
2023-07-06T07:36:21.697Z,12.95
2023-07-06T07:38:50.254Z,6.68
2023-07-06T07:41:20.787Z,12.97
2023-07-06T07:43:50.346Z,7.30
2023-07-06T07:46:19.788Z,11.10
2023-07-06T07:48:48.401Z,9.38
2023-07-06T07:51:18.470Z,6.85
2023-07-06T07:53:45.855Z,7.47
2023-07-06T07:56:16.779Z,9.73
2023-07-06T07:58:46.622Z,5.88
2023-07-06T08:01:14.645Z,6.00
2023-07-06T08:03:41.621Z,10.68
2023-07-06T08:06:10.384Z,7.93
2023-07-06T08:08:39.332Z,10.18
2023-07-06T08:11:08.578Z,5.70
2023-07-06T08:13:36.217Z,4.88
2023-07-06T08:16:04.993Z,13.75
2023-07-06T08:18:32.240Z,6.77
2023-07-06T08:21:36.880Z,4.13
2023-07-06T08:23:49.397Z,5.32
2023-07-06T08:26:16.620Z,6.82
2023-07-06T08:28:43.544Z,5.75
2023-07-06T08:31:20.991Z,4.10
2023-07-06T08:33:49.190Z,6.63
2023-07-06T08:36:17.408Z,9.30
2023-07-06T08:38:44.989Z,5.78
2023-07-06T08:41:32.612Z,7.43
2023-07-06T08:44:01.079Z,6.27
2023-07-06T08:46:33.437Z,5.88
2023-07-06T08:49:01.720Z,6.45
2023-07-06T08:51:35.836Z,7.13
2023-07-06T08:54:11.366Z,5.50
2023-07-06T08:56:37.968Z,7.50
2023-07-06T08:59:14.304Z,8.32
2023-07-06T09:01:43.258Z,7.32
2023-07-06T09:04:20.240Z,7.10
2023-07-06T09:06:55.024Z,8.00
2023-07-06T09:09:22.170Z,5.73
2023-07-06T09:11:51.881Z,6.28
2023-07-06T09:14:21.219Z,7.32
2023-07-06T09:16:58.584Z,7.43
2023-07-06T09:19:26.683Z,7.10
2023-07-06T09:21:59.522Z,6.00
2023-07-06T09:24:28.785Z,4.32
2023-07-06T09:27:00.208Z,5.00
2023-07-06T09:29:33.655Z,3.25
2023-07-06T09:32:14.163Z,5.18
2023-07-06T09:34:48.021Z,3.90
2023-07-06T09:37:16.184Z,5.85
2023-07-06T09:39:42.988Z,6.38
2023-07-06T09:42:16.613Z,8.55
2023-07-06T09:44:43.234Z,3.88
2023-07-06T09:47:14.415Z,3.73
2023-07-06T09:49:56.448Z,6.10
2023-07-06T09:52:23.989Z,7.75
2023-07-06T09:55:15.163Z,6.78
2023-07-06T09:57:41.763Z,6.40
2023-07-06T10:00:18.502Z,4.77
2023-07-06T10:03:01.189Z,4.90
2023-07-06T10:05:53.671Z,5.22
2023-07-06T10:08:25.911Z,5.93
2023-07-06T10:11:17.805Z,4.70
2023-07-06T10:14:06.497Z,4.23
2023-07-06T10:16:48.916Z,7.63
2023-07-06T10:19:21.611Z,4.78
2023-07-06T10:22:22.410Z,5.93
2023-07-06T10:24:54.846Z,6.15
2023-07-06T10:27:27.673Z,8.17
2023-07-06T10:29:59.736Z,7.53
2023-07-06T10:32:34.185Z,6.93
2023-07-06T10:35:32.429Z,6.00
2023-07-06T10:38:02.189Z,6.75
2023-07-06T10:40:30.346Z,7.83
2023-07-06T10:43:14.278Z,3.80
2023-07-06T10:45:47.261Z,4.85
2023-07-06T10:48:22.995Z,7.10
2023-07-06T10:51:05.411Z,6.55
2023-07-06T10:53:43.721Z,4.67
2023-07-06T10:56:13.290Z,6.47
2023-07-06T10:58:58.405Z,5.20
2023-07-06T11:01:33.580Z,6.28
2023-07-06T11:04:02.503Z,3.97
2023-07-06T11:06:55.439Z,3.43
2023-07-06T11:09:22.541Z,6.57
2023-07-06T11:11:49.186Z,5.75
2023-07-06T11:14:32.212Z,6.32
2023-07-06T11:17:03.967Z,3.25
2023-07-06T11:19:35.708Z,4.17
2023-07-06T11:22:07.021Z,4.78
2023-07-06T11:24:46.006Z,8.13
2023-07-06T11:27:26.497Z,4.45
2023-07-06T11:29:55.571Z,5.05
2023-07-06T11:32:33.767Z,4.83
2023-07-06T11:35:25.306Z,4.68
2023-07-06T11:38:20.695Z,5.30
2023-07-06T11:41:18.145Z,3.95
2023-07-06T11:44:03.301Z,2.95
2023-07-06T11:49:49.238Z,4.85
2023-07-06T11:52:26.048Z,6.80
2023-07-06T11:55:19.917Z,3.13
2023-07-06T11:58:30.081Z,2.35
2023-07-06T12:01:11.632Z,2.13
2023-07-06T12:03:39.025Z,3.53
2023-07-06T12:06:05.712Z,3.10
2023-07-06T12:08:38.966Z,3.75
2023-07-06T12:11:10.851Z,1.80
2023-07-06T12:13:42.446Z,3.17
2023-07-06T12:16:20.475Z,2.38
2023-07-06T12:18:56.958Z,1.58
2023-07-06T12:21:54.098Z,1.30
2023-07-06T12:24:24.319Z,3.58
2023-07-06T12:26:57.206Z,5.57
2023-07-06T12:29:28.473Z,3.28
2023-07-06T12:32:02.136Z,2.42
2023-07-06T12:34:34.076Z,3.22
2023-07-06T12:37:03.871Z,2.33
2023-07-06T12:39:39.689Z,2.67
2023-07-06T12:42:08.120Z,4.85
2023-07-06T12:44:35.161Z,2.63
2023-07-06T12:47:19.351Z,1.75
2023-07-06T12:49:48.453Z,3.20
2023-07-06T12:52:15.054Z,0.90
2023-07-06T12:54:50.312Z,2.17
2023-07-06T12:57:26.588Z,3.92
2023-07-06T12:59:58.086Z,1.35
2023-07-06T13:02:31.390Z,1.00
2023-07-06T13:04:58.807Z,2.27
2023-07-06T13:07:29.510Z,1.48
2023-07-06T13:09:56.476Z,0.70
2023-07-06T13:12:25.995Z,1.33
2023-07-06T13:14:53.556Z,1.13
2023-07-06T13:17:27.141Z,1.20
2023-07-06T13:19:55.590Z,1.75
2023-07-06T13:22:22.729Z,1.85
2023-07-06T13:24:49.451Z,1.42
2023-07-06T13:27:18.239Z,1.60
2023-07-06T13:29:46.485Z,1.50
2023-07-06T13:32:19.154Z,3.42
2023-07-06T13:34:48.115Z,1.60
2023-07-06T13:37:25.995Z,1.02
2023-07-06T13:39:53.033Z,0.77
2023-07-06T13:42:22.823Z,0.97
2023-07-06T13:44:50.597Z,1.45
2023-07-06T13:47:20.122Z,1.13
2023-07-06T13:49:51.859Z,1.75
2023-07-06T13:52:21.182Z,2.78
2023-07-06T13:54:47.903Z,1.73
2023-07-06T13:57:14.531Z,0.70
2023-07-06T13:59:41.325Z,0.80
2023-07-06T14:02:14.768Z,1.80
2023-07-06T14:04:43.674Z,1.80
2023-07-06T14:07:11.338Z,0.70
2023-07-06T14:09:38.158Z,0.77
2023-07-06T14:12:06.497Z,1.65
2023-07-06T14:14:33.274Z,1.10
2023-07-06T14:16:59.963Z,1.80
2023-07-06T14:19:26.568Z,2.17
2023-07-06T14:21:53.452Z,1.67
2023-07-06T14:24:22.922Z,1.17
2023-07-06T14:26:49.794Z,0.85
2023-07-06T14:29:17.424Z,0.93
2023-07-06T14:31:48.878Z,1.07
2023-07-06T14:34:17.129Z,0.90
2023-07-06T14:36:43.622Z,0.90
2023-07-06T14:39:10.515Z,2.70
2023-07-06T14:41:37.241Z,1.40
2023-07-06T14:44:04.116Z,1.60
2023-07-06T14:46:31.309Z,1.27
2023-07-06T14:48:57.872Z,1.92
2023-07-06T14:51:24.436Z,1.77
2023-07-06T14:53:52.723Z,2.15
2023-07-06T14:56:22.618Z,3.97
2023-07-06T14:58:50.248Z,1.60
2023-07-06T15:01:16.898Z,1.42
2023-07-06T15:03:43.702Z,4.00
2023-07-06T15:06:12.065Z,2.85
2023-07-06T15:08:38.860Z,2.00
2023-07-06T15:11:05.444Z,0.98
2023-07-06T15:13:32.222Z,1.13
2023-07-06T15:15:59.288Z,1.08
2023-07-06T15:18:26.613Z,2.25
2023-07-06T15:21:10.517Z,1.30
2023-07-06T15:23:38.769Z,0.68
2023-07-06T15:26:05.825Z,1.05
2023-07-06T15:28:32.663Z,2.95
2023-07-06T15:30:59.406Z,2.80
2023-07-06T15:33:26.083Z,1.83
2023-07-06T15:35:52.703Z,1.35
2023-07-06T15:38:19.245Z,1.30
2023-07-06T15:40:47.966Z,1.80
2023-07-06T15:43:16.179Z,2.53
2023-07-06T15:45:44.700Z,2.23
2023-07-06T15:48:11.439Z,1.08
2023-07-06T15:50:39.534Z,1.05
2023-07-06T15:53:08.422Z,1.35
2023-07-06T15:55:36.354Z,2.15
2023-07-06T15:58:03.518Z,1.60
2023-07-06T16:00:30.120Z,2.80
2023-07-06T16:02:57.564Z,2.28
2023-07-06T16:05:24.967Z,1.67
2023-07-06T16:07:51.870Z,2.55
2023-07-06T16:10:18.818Z,1.90
2023-07-06T16:12:45.855Z,3.42
2023-07-06T16:15:12.953Z,1.30
2023-07-06T16:17:40.341Z,2.15
2023-07-06T16:20:08.081Z,3.58
2023-07-06T16:22:35.353Z,3.20
2023-07-06T16:25:02.127Z,1.02
2023-07-06T16:27:28.775Z,1.20
2023-07-06T16:29:55.379Z,3.17
2023-07-06T16:32:22.137Z,2.38
2023-07-06T16:34:48.755Z,1.13
2023-07-06T16:37:18.255Z,2.55
2023-07-06T16:39:44.882Z,0.93
2023-07-06T16:42:11.772Z,2.53
2023-07-06T16:44:38.493Z,1.48
2023-07-06T16:47:05.358Z,1.80
2023-07-06T16:49:32.453Z,2.40
2023-07-06T16:51:59.211Z,1.23
2023-07-06T16:54:25.922Z,2.47
2023-07-06T16:56:52.779Z,3.42
2023-07-06T16:59:19.547Z,1.60
2023-07-06T17:01:49.276Z,3.17
2023-07-06T17:04:16.179Z,1.08
2023-07-06T17:06:42.790Z,3.30
2023-07-06T17:09:09.373Z,0.90
2023-07-06T17:11:36.053Z,2.43
2023-07-06T17:14:02.887Z,2.80
2023-07-06T17:16:29.948Z,3.10
2023-07-06T17:18:56.445Z,3.60
2023-07-06T17:21:23.071Z,1.30
2023-07-06T17:23:49.672Z,2.70
2023-07-06T17:26:16.119Z,1.80
2023-07-06T17:28:42.635Z,1.60
2023-07-06T17:31:15.025Z,3.55
2023-07-06T17:33:41.803Z,2.17
2023-07-06T17:36:09.672Z,2.03
2023-07-06T17:38:37.264Z,2.95
2023-07-06T17:41:06.857Z,2.38
2023-07-06T17:43:34.471Z,1.98
2023-07-06T17:46:01.870Z,3.38
2023-07-06T17:48:29.431Z,1.13
2023-07-06T17:51:00.387Z,1.90
2023-07-06T17:53:27.084Z,2.88
2023-07-06T17:55:53.584Z,1.50
2023-07-06T17:58:21.826Z,2.15
2023-07-06T18:00:51.433Z,1.73
2023-07-06T18:03:19.019Z,2.25
2023-07-06T18:05:47.282Z,2.95
2023-07-06T18:08:14.283Z,2.92
2023-07-06T18:10:40.993Z,1.98
2023-07-06T18:13:08.667Z,1.00
2023-07-06T18:15:35.924Z,2.38
2023-07-06T18:18:03.822Z,2.95
2023-07-06T18:20:30.647Z,1.40
2023-07-06T18:22:57.229Z,3.97
2023-07-06T18:25:24.307Z,1.30
2023-07-06T18:27:51.207Z,2.50
2023-07-06T18:30:17.884Z,2.58
2023-07-06T18:32:44.650Z,2.15
2023-07-06T18:35:11.418Z,1.73
2023-07-06T18:37:38.150Z,2.57
2023-07-06T18:40:05.184Z,1.67
2023-07-06T18:42:31.851Z,1.88
2023-07-06T18:45:05.151Z,0.75
2023-07-06T18:47:31.703Z,2.20
2023-07-06T18:49:58.371Z,2.90
2023-07-06T18:52:26.676Z,1.23
2023-07-06T18:54:53.720Z,3.03
2023-07-06T18:57:23.340Z,1.00
2023-07-06T18:59:50.588Z,1.13
2023-07-06T19:02:17.676Z,1.97
2023-07-06T19:04:45.134Z,0.98
2023-07-06T19:07:13.205Z,1.13
2023-07-06T19:09:40.510Z,4.80
2023-07-06T19:12:08.478Z,3.03
2023-07-06T19:14:35.250Z,1.20
2023-07-06T19:17:01.986Z,2.13
2023-07-06T19:19:28.994Z,2.88
2023-07-06T19:21:56.126Z,2.03
2023-07-06T19:24:23.038Z,1.40
2023-07-06T19:26:49.893Z,0.90
2023-07-06T19:29:21.083Z,2.38
2023-07-06T19:31:50.441Z,1.63
2023-07-06T19:34:20.406Z,2.70
2023-07-06T19:36:46.930Z,2.25
2023-07-06T19:39:13.828Z,3.40
2023-07-06T19:41:40.598Z,1.42
2023-07-06T19:44:07.175Z,2.05
2023-07-06T19:46:33.894Z,2.75
2023-07-06T19:49:00.624Z,1.40
2023-07-06T19:51:27.095Z,2.47
2023-07-06T19:53:53.639Z,3.85
2023-07-06T19:56:22.408Z,2.25
2023-07-06T19:58:49.280Z,2.25
2023-07-06T20:01:20.204Z,2.50
2023-07-06T20:03:46.910Z,1.33
2023-07-06T20:06:14.110Z,2.65
2023-07-06T20:08:40.617Z,1.50
2023-07-06T20:11:07.168Z,2.45
2023-07-06T20:13:35.857Z,1.85
2023-07-06T20:16:04.588Z,2.53
2023-07-06T20:18:31.198Z,1.60
2023-07-06T20:20:57.910Z,2.78
2023-07-06T20:23:24.806Z,1.60
2023-07-06T20:25:51.412Z,2.33
2023-07-06T20:28:18.160Z,1.83
2023-07-06T20:30:46.602Z,2.63
2023-07-06T20:33:13.166Z,2.45
2023-07-06T20:35:43.052Z,1.20
2023-07-06T20:38:10.001Z,1.85
2023-07-06T20:40:36.939Z,3.00
2023-07-06T20:43:04.352Z,2.30
2023-07-06T20:45:32.505Z,2.72
2023-07-06T20:48:01.251Z,2.65
2023-07-06T20:50:28.004Z,3.15
2023-07-06T20:52:54.407Z,2.40
2023-07-06T20:55:20.860Z,1.38
2023-07-06T20:57:48.531Z,2.22
2023-07-06T21:00:15.069Z,1.30
2023-07-06T21:02:41.618Z,2.10
2023-07-06T21:05:08.377Z,1.10
2023-07-06T21:07:35.056Z,1.52
2023-07-06T21:10:01.733Z,1.40
2023-07-06T21:12:28.185Z,1.02
2023-07-06T21:14:54.621Z,1.52
2023-07-06T21:17:21.294Z,2.53
2023-07-06T21:19:47.768Z,4.03
2023-07-06T21:22:14.269Z,2.70
2023-07-06T21:24:41.006Z,2.45
2023-07-06T21:27:07.845Z,2.55
2023-07-06T21:29:34.280Z,1.30
2023-07-06T21:32:01.027Z,2.42
2023-07-06T21:34:27.502Z,3.20
2023-07-06T21:36:54.003Z,1.40
2023-07-06T21:39:24.697Z,2.47
2023-07-06T21:41:51.965Z,1.97
2023-07-06T21:44:18.680Z,4.50
2023-07-06T21:46:45.346Z,2.03
2023-07-06T21:49:11.953Z,3.42
2023-07-06T21:51:38.486Z,2.83
2023-07-06T21:54:04.965Z,1.63
2023-07-06T21:56:31.726Z,4.65
2023-07-06T21:58:58.472Z,3.17
2023-07-06T22:01:25.424Z,1.35
2023-07-06T22:03:52.236Z,1.90
2023-07-06T22:06:21.308Z,4.70
2023-07-06T22:08:49.278Z,2.50
2023-07-06T22:11:20.036Z,2.72
2023-07-06T22:13:48.398Z,3.35
2023-07-06T22:16:15.479Z,3.63
2023-07-06T22:18:42.859Z,3.30
2023-07-06T22:21:09.901Z,2.88
2023-07-06T22:23:37.563Z,1.95
2023-07-06T22:26:06.903Z,2.58
2023-07-06T22:28:34.194Z,1.80
2023-07-06T22:31:03.521Z,2.20
2023-07-06T22:33:35.719Z,1.88
2023-07-06T22:36:02.894Z,1.60
2023-07-06T22:38:29.425Z,3.35
2023-07-06T22:40:55.913Z,1.88
2023-07-06T22:43:22.634Z,3.10
2023-07-06T22:45:49.321Z,1.60
2023-07-06T22:48:19.339Z,3.53
2023-07-06T22:50:45.993Z,2.47
2023-07-06T22:53:13.127Z,2.83
2023-07-06T22:55:39.820Z,1.40
2023-07-06T22:58:07.490Z,4.28
2023-07-06T23:00:37.772Z,3.25
2023-07-06T23:03:04.842Z,2.55
2023-07-06T23:05:31.456Z,1.63
2023-07-06T23:07:58.215Z,3.47
2023-07-06T23:10:30.714Z,1.95
2023-07-06T23:12:57.963Z,2.75
2023-07-06T23:15:27.038Z,2.00
2023-07-06T23:17:53.802Z,2.30
2023-07-06T23:20:21.754Z,2.80
2023-07-06T23:22:48.697Z,2.63
2023-07-06T23:25:17.616Z,2.08
2023-07-06T23:27:46.340Z,2.65
2023-07-06T23:30:19.188Z,1.98
2023-07-06T23:32:49.718Z,3.40
2023-07-06T23:35:21.106Z,1.70
2023-07-06T23:37:50.134Z,2.25
2023-07-06T23:40:22.428Z,2.00
2023-07-06T23:42:49.482Z,3.03
2023-07-06T23:45:16.432Z,2.13
2023-07-06T23:47:43.005Z,7.25
2023-07-06T23:50:10.797Z,2.58
2023-07-06T23:52:37.537Z,3.95
2023-07-06T23:55:04.333Z,1.73
2023-07-06T23:57:30.905Z,2.90
2023-07-06T23:59:57.540Z,6.32
